sensor_id;sensor_type;location;lat;lon;timestamp;temperature;humidity
55203;DHT22;41077;52.956;6.796;2022-07-23T00:00:17;14.30;99.90
55203;DHT22;41077;52.956;6.796;2022-07-23T00:02:43;14.30;99.90
55203;DHT22;41077;52.956;6.796;2022-07-23T00:05:10;14.30;99.90
55203;DHT22;41077;52.956;6.796;2022-07-23T00:07:35;14.30;99.90
55203;DHT22;41077;52.956;6.796;2022-07-23T00:10:02;14.20;99.90
55203;DHT22;41077;52.956;6.796;2022-07-23T00:12:28;14.20;99.90
55203;DHT22;41077;52.956;6.796;2022-07-23T00:14:53;14.20;99.90
55203;DHT22;41077;52.956;6.796;2022-07-23T00:17:19;14.20;99.90
55203;DHT22;41077;52.956;6.796;2022-07-23T00:19:45;14.20;99.90
55203;DHT22;41077;52.956;6.796;2022-07-23T00:22:10;14.20;99.90
55203;DHT22;41077;52.956;6.796;2022-07-23T00:24:36;14.20;99.90
55203;DHT22;41077;52.956;6.796;2022-07-23T00:27:01;14.20;99.90
55203;DHT22;41077;52.956;6.796;2022-07-23T00:29:27;14.20;99.90
55203;DHT22;41077;52.956;6.796;2022-07-23T00:31:53;14.10;99.90
55203;DHT22;41077;52.956;6.796;2022-07-23T00:34:18;14.10;99.90
55203;DHT22;41077;52.956;6.796;2022-07-23T00:36:44;14.00;99.90
55203;DHT22;41077;52.956;6.796;2022-07-23T00:39:10;14.00;99.90
55203;DHT22;41077;52.956;6.796;2022-07-23T00:41:35;13.90;99.90
55203;DHT22;41077;52.956;6.796;2022-07-23T00:44:18;13.90;99.90
55203;DHT22;41077;52.956;6.796;2022-07-23T00:46:46;13.80;99.90
55203;DHT22;41077;52.956;6.796;2022-07-23T00:49:12;13.80;99.90
55203;DHT22;41077;52.956;6.796;2022-07-23T00:51:38;13.70;99.90
55203;DHT22;41077;52.956;6.796;2022-07-23T00:54:04;13.70;99.90
55203;DHT22;41077;52.956;6.796;2022-07-23T00:56:30;13.60;99.90
55203;DHT22;41077;52.956;6.796;2022-07-23T00:58:57;13.60;99.90
55203;DHT22;41077;52.956;6.796;2022-07-23T01:01:22;13.50;99.90
55203;DHT22;41077;52.956;6.796;2022-07-23T01:03:48;13.50;99.90
55203;DHT22;41077;52.956;6.796;2022-07-23T01:06:14;13.50;99.90
55203;DHT22;41077;52.956;6.796;2022-07-23T01:08:41;13.50;99.90
55203;DHT22;41077;52.956;6.796;2022-07-23T01:11:07;13.50;99.90
55203;DHT22;41077;52.956;6.796;2022-07-23T01:13:33;13.40;99.90
55203;DHT22;41077;52.956;6.796;2022-07-23T01:15:59;13.30;99.90
55203;DHT22;41077;52.956;6.796;2022-07-23T01:18:25;13.30;99.90
55203;DHT22;41077;52.956;6.796;2022-07-23T01:20:50;13.30;99.90
55203;DHT22;41077;52.956;6.796;2022-07-23T01:23:16;13.30;99.90
55203;DHT22;41077;52.956;6.796;2022-07-23T01:25:54;13.30;99.90
55203;DHT22;41077;52.956;6.796;2022-07-23T01:28:21;13.30;99.90
55203;DHT22;41077;52.956;6.796;2022-07-23T01:30:47;13.30;99.90
55203;DHT22;41077;52.956;6.796;2022-07-23T01:33:13;13.30;99.90
55203;DHT22;41077;52.956;6.796;2022-07-23T01:35:40;13.20;99.90
55203;DHT22;41077;52.956;6.796;2022-07-23T01:38:05;13.20;99.90
55203;DHT22;41077;52.956;6.796;2022-07-23T01:40:31;13.20;99.90
55203;DHT22;41077;52.956;6.796;2022-07-23T01:42:57;13.20;99.90
55203;DHT22;41077;52.956;6.796;2022-07-23T01:45:23;13.20;99.90
55203;DHT22;41077;52.956;6.796;2022-07-23T01:47:49;13.20;99.90
55203;DHT22;41077;52.956;6.796;2022-07-23T01:50:15;13.10;99.90
55203;DHT22;41077;52.956;6.796;2022-07-23T01:52:41;13.00;99.90
55203;DHT22;41077;52.956;6.796;2022-07-23T01:55:08;13.00;99.90
55203;DHT22;41077;52.956;6.796;2022-07-23T01:57:34;13.00;99.90
55203;DHT22;41077;52.956;6.796;2022-07-23T01:59:59;12.90;99.90
55203;DHT22;41077;52.956;6.796;2022-07-23T02:02:25;12.90;99.90
55203;DHT22;41077;52.956;6.796;2022-07-23T02:04:51;12.90;99.90
55203;DHT22;41077;52.956;6.796;2022-07-23T02:07:17;12.90;99.90
55203;DHT22;41077;52.956;6.796;2022-07-23T02:09:42;12.80;99.90
55203;DHT22;41077;52.956;6.796;2022-07-23T02:12:08;12.80;99.90
55203;DHT22;41077;52.956;6.796;2022-07-23T02:14:34;12.80;99.90
55203;DHT22;41077;52.956;6.796;2022-07-23T02:16:59;12.80;99.90
55203;DHT22;41077;52.956;6.796;2022-07-23T02:19:25;12.80;99.90
55203;DHT22;41077;52.956;6.796;2022-07-23T02:21:51;12.80;99.90
55203;DHT22;41077;52.956;6.796;2022-07-23T02:24:17;12.80;99.90
55203;DHT22;41077;52.956;6.796;2022-07-23T02:26:43;12.70;99.90
55203;DHT22;41077;52.956;6.796;2022-07-23T02:29:09;12.70;99.90
55203;DHT22;41077;52.956;6.796;2022-07-23T02:31:35;12.70;99.90
55203;DHT22;41077;52.956;6.796;2022-07-23T02:34:01;12.60;99.90
55203;DHT22;41077;52.956;6.796;2022-07-23T02:36:27;12.60;99.90
55203;DHT22;41077;52.956;6.796;2022-07-23T02:38:53;12.50;99.90
55203;DHT22;41077;52.956;6.796;2022-07-23T02:41:19;12.60;99.90
55203;DHT22;41077;52.956;6.796;2022-07-23T02:43:45;12.50;99.90
55203;DHT22;41077;52.956;6.796;2022-07-23T02:46:10;12.50;99.90
55203;DHT22;41077;52.956;6.796;2022-07-23T02:48:36;12.50;99.90
55203;DHT22;41077;52.956;6.796;2022-07-23T02:51:02;12.40;99.90
55203;DHT22;41077;52.956;6.796;2022-07-23T02:53:27;12.40;99.90
55203;DHT22;41077;52.956;6.796;2022-07-23T02:55:53;12.30;99.90
55203;DHT22;41077;52.956;6.796;2022-07-23T02:58:18;12.30;99.90
55203;DHT22;41077;52.956;6.796;2022-07-23T03:00:44;12.30;99.90
55203;DHT22;41077;52.956;6.796;2022-07-23T03:03:10;12.20;99.90
55203;DHT22;41077;52.956;6.796;2022-07-23T03:05:36;12.20;99.90
55203;DHT22;41077;52.956;6.796;2022-07-23T03:08:02;12.20;99.90
55203;DHT22;41077;52.956;6.796;2022-07-23T03:10:28;12.20;99.90
55203;DHT22;41077;52.956;6.796;2022-07-23T03:12:53;12.10;99.90
55203;DHT22;41077;52.956;6.796;2022-07-23T03:15:19;12.00;99.90
55203;DHT22;41077;52.956;6.796;2022-07-23T03:17:45;11.90;99.90
55203;DHT22;41077;52.956;6.796;2022-07-23T03:20:10;11.90;99.90
55203;DHT22;41077;52.956;6.796;2022-07-23T03:22:36;11.90;99.90
55203;DHT22;41077;52.956;6.796;2022-07-23T03:25:02;11.90;99.90
55203;DHT22;41077;52.956;6.796;2022-07-23T03:27:29;11.80;99.90
55203;DHT22;41077;52.956;6.796;2022-07-23T03:29:57;11.90;99.90
55203;DHT22;41077;52.956;6.796;2022-07-23T03:32:23;11.90;99.90
55203;DHT22;41077;52.956;6.796;2022-07-23T03:34:49;11.90;99.90
55203;DHT22;41077;52.956;6.796;2022-07-23T03:37:16;11.80;99.90
55203;DHT22;41077;52.956;6.796;2022-07-23T03:39:41;11.80;99.90
55203;DHT22;41077;52.956;6.796;2022-07-23T03:42:08;11.80;99.90
55203;DHT22;41077;52.956;6.796;2022-07-23T03:44:34;11.80;99.90
55203;DHT22;41077;52.956;6.796;2022-07-23T03:47:03;11.80;99.90
55203;DHT22;41077;52.956;6.796;2022-07-23T03:49:28;11.80;99.90
55203;DHT22;41077;52.956;6.796;2022-07-23T03:51:54;11.90;99.90
55203;DHT22;41077;52.956;6.796;2022-07-23T03:54:20;11.90;99.90
55203;DHT22;41077;52.956;6.796;2022-07-23T03:56:45;11.90;99.90
55203;DHT22;41077;52.956;6.796;2022-07-23T03:59:11;12.00;99.90
55203;DHT22;41077;52.956;6.796;2022-07-23T04:01:37;12.00;99.90
55203;DHT22;41077;52.956;6.796;2022-07-23T04:04:03;12.10;99.90
55203;DHT22;41077;52.956;6.796;2022-07-23T04:06:29;12.10;99.90
55203;DHT22;41077;52.956;6.796;2022-07-23T04:08:54;12.10;99.90
55203;DHT22;41077;52.956;6.796;2022-07-23T04:11:20;12.10;99.90
55203;DHT22;41077;52.956;6.796;2022-07-23T04:13:46;12.10;99.90
55203;DHT22;41077;52.956;6.796;2022-07-23T04:16:12;12.10;99.90
55203;DHT22;41077;52.956;6.796;2022-07-23T04:18:38;12.10;99.90
55203;DHT22;41077;52.956;6.796;2022-07-23T04:21:03;12.10;99.90
55203;DHT22;41077;52.956;6.796;2022-07-23T04:23:29;12.20;99.90
55203;DHT22;41077;52.956;6.796;2022-07-23T04:25:55;12.20;99.90
55203;DHT22;41077;52.956;6.796;2022-07-23T04:28:20;12.20;99.90
55203;DHT22;41077;52.956;6.796;2022-07-23T04:30:47;12.30;99.90
55203;DHT22;41077;52.956;6.796;2022-07-23T04:33:13;12.40;99.90
55203;DHT22;41077;52.956;6.796;2022-07-23T04:35:38;12.50;99.90
55203;DHT22;41077;52.956;6.796;2022-07-23T04:38:04;12.40;99.90
55203;DHT22;41077;52.956;6.796;2022-07-23T04:40:30;12.60;99.90
55203;DHT22;41077;52.956;6.796;2022-07-23T04:42:56;12.60;99.90
55203;DHT22;41077;52.956;6.796;2022-07-23T04:45:21;12.70;99.90
55203;DHT22;41077;52.956;6.796;2022-07-23T04:47:49;12.60;99.90
55203;DHT22;41077;52.956;6.796;2022-07-23T04:50:15;12.70;99.90
55203;DHT22;41077;52.956;6.796;2022-07-23T04:52:44;12.70;99.90
55203;DHT22;41077;52.956;6.796;2022-07-23T04:55:10;12.80;99.90
55203;DHT22;41077;52.956;6.796;2022-07-23T04:57:36;12.90;99.90
55203;DHT22;41077;52.956;6.796;2022-07-23T05:00:02;12.90;99.90
55203;DHT22;41077;52.956;6.796;2022-07-23T05:02:28;13.00;99.90
55203;DHT22;41077;52.956;6.796;2022-07-23T05:04:54;13.10;99.90
55203;DHT22;41077;52.956;6.796;2022-07-23T05:07:20;13.10;99.90
55203;DHT22;41077;52.956;6.796;2022-07-23T05:09:45;13.20;99.90
55203;DHT22;41077;52.956;6.796;2022-07-23T05:12:12;13.30;99.90
55203;DHT22;41077;52.956;6.796;2022-07-23T05:14:37;13.30;99.90
55203;DHT22;41077;52.956;6.796;2022-07-23T05:17:03;13.40;99.90
55203;DHT22;41077;52.956;6.796;2022-07-23T05:19:29;13.50;99.90
55203;DHT22;41077;52.956;6.796;2022-07-23T05:21:54;13.50;99.90
55203;DHT22;41077;52.956;6.796;2022-07-23T05:24:20;13.60;99.90
55203;DHT22;41077;52.956;6.796;2022-07-23T05:26:46;13.60;99.90
55203;DHT22;41077;52.956;6.796;2022-07-23T05:29:12;13.70;99.90
55203;DHT22;41077;52.956;6.796;2022-07-23T05:31:37;13.70;99.90
55203;DHT22;41077;52.956;6.796;2022-07-23T05:34:03;13.80;99.90
55203;DHT22;41077;52.956;6.796;2022-07-23T05:36:31;13.80;99.90
55203;DHT22;41077;52.956;6.796;2022-07-23T05:38:57;13.90;99.90
55203;DHT22;41077;52.956;6.796;2022-07-23T05:41:22;14.00;99.90
55203;DHT22;41077;52.956;6.796;2022-07-23T05:43:48;14.00;99.90
55203;DHT22;41077;52.956;6.796;2022-07-23T05:46:14;14.10;99.90
55203;DHT22;41077;52.956;6.796;2022-07-23T05:48:39;14.10;99.90
55203;DHT22;41077;52.956;6.796;2022-07-23T05:51:05;14.20;99.90
55203;DHT22;41077;52.956;6.796;2022-07-23T05:53:32;14.30;99.90
55203;DHT22;41077;52.956;6.796;2022-07-23T05:55:58;14.30;99.90
55203;DHT22;41077;52.956;6.796;2022-07-23T05:58:24;14.40;99.90
55203;DHT22;41077;52.956;6.796;2022-07-23T06:00:49;14.40;99.90
55203;DHT22;41077;52.956;6.796;2022-07-23T06:03:15;14.50;99.90
55203;DHT22;41077;52.956;6.796;2022-07-23T06:05:41;14.50;99.90
55203;DHT22;41077;52.956;6.796;2022-07-23T06:08:06;14.60;99.90
55203;DHT22;41077;52.956;6.796;2022-07-23T06:10:32;14.70;99.90
55203;DHT22;41077;52.956;6.796;2022-07-23T06:12:58;14.80;99.90
55203;DHT22;41077;52.956;6.796;2022-07-23T06:15:24;14.80;99.90
55203;DHT22;41077;52.956;6.796;2022-07-23T06:17:49;14.90;99.90
55203;DHT22;41077;52.956;6.796;2022-07-23T06:20:15;15.00;99.90
55203;DHT22;41077;52.956;6.796;2022-07-23T06:22:41;15.00;99.90
55203;DHT22;41077;52.956;6.796;2022-07-23T06:25:07;15.10;99.90
55203;DHT22;41077;52.956;6.796;2022-07-23T06:27:33;15.20;99.90
55203;DHT22;41077;52.956;6.796;2022-07-23T06:29:59;15.20;99.90
55203;DHT22;41077;52.956;6.796;2022-07-23T06:32:24;15.30;99.90
55203;DHT22;41077;52.956;6.796;2022-07-23T06:34:50;15.30;99.90
55203;DHT22;41077;52.956;6.796;2022-07-23T06:37:16;15.40;99.90
55203;DHT22;41077;52.956;6.796;2022-07-23T06:39:42;15.50;99.90
55203;DHT22;41077;52.956;6.796;2022-07-23T06:42:07;15.50;99.90
55203;DHT22;41077;52.956;6.796;2022-07-23T06:44:33;15.60;99.90
55203;DHT22;41077;52.956;6.796;2022-07-23T06:46:59;15.70;99.90
55203;DHT22;41077;52.956;6.796;2022-07-23T06:49:25;15.70;99.90
55203;DHT22;41077;52.956;6.796;2022-07-23T06:51:50;15.80;99.90
55203;DHT22;41077;52.956;6.796;2022-07-23T06:54:16;15.80;99.90
55203;DHT22;41077;52.956;6.796;2022-07-23T06:56:42;15.90;99.90
55203;DHT22;41077;52.956;6.796;2022-07-23T06:59:08;16.10;99.90
55203;DHT22;41077;52.956;6.796;2022-07-23T07:01:34;16.10;99.90
55203;DHT22;41077;52.956;6.796;2022-07-23T07:04:00;16.20;99.90
55203;DHT22;41077;52.956;6.796;2022-07-23T07:06:25;16.20;99.90
55203;DHT22;41077;52.956;6.796;2022-07-23T07:08:51;16.30;99.90
55203;DHT22;41077;52.956;6.796;2022-07-23T07:11:17;16.30;99.90
55203;DHT22;41077;52.956;6.796;2022-07-23T07:13:42;16.40;99.90
55203;DHT22;41077;52.956;6.796;2022-07-23T07:16:08;16.50;99.90
55203;DHT22;41077;52.956;6.796;2022-07-23T07:18:34;16.50;99.90
55203;DHT22;41077;52.956;6.796;2022-07-23T07:20:59;16.60;99.90
55203;DHT22;41077;52.956;6.796;2022-07-23T07:23:25;16.70;99.90
55203;DHT22;41077;52.956;6.796;2022-07-23T07:25:51;16.70;99.90
55203;DHT22;41077;52.956;6.796;2022-07-23T07:28:16;16.90;99.90
55203;DHT22;41077;52.956;6.796;2022-07-23T07:30:42;17.00;99.90
55203;DHT22;41077;52.956;6.796;2022-07-23T07:33:08;17.00;99.90
55203;DHT22;41077;52.956;6.796;2022-07-23T07:35:33;17.10;99.90
55203;DHT22;41077;52.956;6.796;2022-07-23T07:38:00;17.10;99.90
55203;DHT22;41077;52.956;6.796;2022-07-23T07:40:26;17.20;99.90
55203;DHT22;41077;52.956;6.796;2022-07-23T07:42:53;17.20;99.90
55203;DHT22;41077;52.956;6.796;2022-07-23T07:45:20;17.20;99.90
55203;DHT22;41077;52.956;6.796;2022-07-23T07:47:46;17.30;99.90
55203;DHT22;41077;52.956;6.796;2022-07-23T07:50:12;17.30;99.90
55203;DHT22;41077;52.956;6.796;2022-07-23T07:52:38;17.40;99.90
55203;DHT22;41077;52.956;6.796;2022-07-23T07:55:06;17.70;99.90
55203;DHT22;41077;52.956;6.796;2022-07-23T07:57:32;17.70;99.90
55203;DHT22;41077;52.956;6.796;2022-07-23T07:59:58;17.80;99.90
55203;DHT22;41077;52.956;6.796;2022-07-23T08:02:24;17.80;99.90
55203;DHT22;41077;52.956;6.796;2022-07-23T08:04:49;17.70;99.90
55203;DHT22;41077;52.956;6.796;2022-07-23T08:07:15;17.60;99.90
55203;DHT22;41077;52.956;6.796;2022-07-23T08:09:41;17.50;99.90
55203;DHT22;41077;52.956;6.796;2022-07-23T08:12:07;17.40;99.90
55203;DHT22;41077;52.956;6.796;2022-07-23T08:14:33;17.40;99.90
55203;DHT22;41077;52.956;6.796;2022-07-23T08:16:59;17.30;99.90
55203;DHT22;41077;52.956;6.796;2022-07-23T08:19:24;17.20;99.90
55203;DHT22;41077;52.956;6.796;2022-07-23T08:21:50;17.20;99.90
55203;DHT22;41077;52.956;6.796;2022-07-23T08:24:16;17.10;99.90
55203;DHT22;41077;52.956;6.796;2022-07-23T08:26:41;17.10;99.90
55203;DHT22;41077;52.956;6.796;2022-07-23T08:29:07;17.10;99.90
55203;DHT22;41077;52.956;6.796;2022-07-23T08:31:33;17.10;99.90
55203;DHT22;41077;52.956;6.796;2022-07-23T08:33:59;17.10;99.90
55203;DHT22;41077;52.956;6.796;2022-07-23T08:36:25;17.20;99.90
55203;DHT22;41077;52.956;6.796;2022-07-23T08:38:53;17.30;99.90
55203;DHT22;41077;52.956;6.796;2022-07-23T08:41:20;17.50;99.90
55203;DHT22;41077;52.956;6.796;2022-07-23T08:43:45;17.70;99.90
55203;DHT22;41077;52.956;6.796;2022-07-23T08:46:13;18.00;99.90
55203;DHT22;41077;52.956;6.796;2022-07-23T08:48:39;18.20;99.90
55203;DHT22;41077;52.956;6.796;2022-07-23T08:51:05;18.40;99.90
55203;DHT22;41077;52.956;6.796;2022-07-23T08:53:32;18.30;99.90
55203;DHT22;41077;52.956;6.796;2022-07-23T08:56:00;18.30;99.90
55203;DHT22;41077;52.956;6.796;2022-07-23T08:58:30;18.20;99.90
55203;DHT22;41077;52.956;6.796;2022-07-23T09:00:56;18.00;99.90
55203;DHT22;41077;52.956;6.796;2022-07-23T09:03:24;18.00;99.90
55203;DHT22;41077;52.956;6.796;2022-07-23T09:05:51;18.20;99.90
55203;DHT22;41077;52.956;6.796;2022-07-23T09:08:20;18.30;99.90
55203;DHT22;41077;52.956;6.796;2022-07-23T09:10:58;18.50;99.90
55203;DHT22;41077;52.956;6.796;2022-07-23T09:16:10;18.90;99.90
55203;DHT22;41077;52.956;6.796;2022-07-23T09:21:18;19.20;99.90
55203;DHT22;41077;52.956;6.796;2022-07-23T09:24:11;19.20;99.90
55203;DHT22;41077;52.956;6.796;2022-07-23T09:26:47;19.10;99.90
55203;DHT22;41077;52.956;6.796;2022-07-23T09:29:18;18.90;99.90
55203;DHT22;41077;52.956;6.796;2022-07-23T09:31:55;18.90;99.90
55203;DHT22;41077;52.956;6.796;2022-07-23T09:34:22;18.80;99.90
55203;DHT22;41077;52.956;6.796;2022-07-23T09:36:50;18.80;99.90
55203;DHT22;41077;52.956;6.796;2022-07-23T09:39:31;18.70;99.90
55203;DHT22;41077;52.956;6.796;2022-07-23T09:42:12;18.80;99.90
55203;DHT22;41077;52.956;6.796;2022-07-23T09:44:42;19.00;99.90
55203;DHT22;41077;52.956;6.796;2022-07-23T09:47:07;19.10;99.90
55203;DHT22;41077;52.956;6.796;2022-07-23T09:49:33;19.20;99.90
55203;DHT22;41077;52.956;6.796;2022-07-23T09:52:00;19.10;99.90
55203;DHT22;41077;52.956;6.796;2022-07-23T09:54:38;19.10;99.90
55203;DHT22;41077;52.956;6.796;2022-07-23T09:57:10;19.20;99.90
55203;DHT22;41077;52.956;6.796;2022-07-23T09:59:39;19.40;99.90
55203;DHT22;41077;52.956;6.796;2022-07-23T10:02:10;19.50;99.90
55203;DHT22;41077;52.956;6.796;2022-07-23T10:04:38;19.50;99.90
55203;DHT22;41077;52.956;6.796;2022-07-23T10:07:06;19.50;99.90
55203;DHT22;41077;52.956;6.796;2022-07-23T10:09:39;19.50;99.70
55203;DHT22;41077;52.956;6.796;2022-07-23T10:12:12;19.50;98.90
55203;DHT22;41077;52.956;6.796;2022-07-23T10:14:54;19.40;99.40
55203;DHT22;41077;52.956;6.796;2022-07-23T10:17:21;19.50;99.40
55203;DHT22;41077;52.956;6.796;2022-07-23T10:19:47;19.30;99.90
55203;DHT22;41077;52.956;6.796;2022-07-23T10:22:24;19.40;99.90
55203;DHT22;41077;52.956;6.796;2022-07-23T10:30:19;19.30;99.90
55203;DHT22;41077;52.956;6.796;2022-07-23T10:36:17;19.30;99.90
55203;DHT22;41077;52.956;6.796;2022-07-23T10:38:51;19.20;99.90
55203;DHT22;41077;52.956;6.796;2022-07-23T10:41:34;19.20;99.90
55203;DHT22;41077;52.956;6.796;2022-07-23T10:44:12;19.20;99.90
55203;DHT22;41077;52.956;6.796;2022-07-23T10:47:03;19.30;99.90
55203;DHT22;41077;52.956;6.796;2022-07-23T10:49:35;19.50;99.80
55203;DHT22;41077;52.956;6.796;2022-07-23T10:57:28;19.60;99.90
55203;DHT22;41077;52.956;6.796;2022-07-23T11:00:23;19.60;99.90
55203;DHT22;41077;52.956;6.796;2022-07-23T11:03:39;19.60;99.90
55203;DHT22;41077;52.956;6.796;2022-07-23T11:05:44;19.60;99.90
55203;DHT22;41077;52.956;6.796;2022-07-23T11:08:16;19.90;98.60
55203;DHT22;41077;52.956;6.796;2022-07-23T11:10:53;19.90;99.00
55203;DHT22;41077;52.956;6.796;2022-07-23T11:31:52;20.00;99.90
55203;DHT22;41077;52.956;6.796;2022-07-23T11:36:51;19.90;99.90
55203;DHT22;41077;52.956;6.796;2022-07-23T11:39:17;20.00;99.90
55203;DHT22;41077;52.956;6.796;2022-07-23T11:41:46;20.20;99.30
55203;DHT22;41077;52.956;6.796;2022-07-23T11:44:29;20.40;99.30
55203;DHT22;41077;52.956;6.796;2022-07-23T11:46:59;20.50;99.20
55203;DHT22;41077;52.956;6.796;2022-07-23T11:49:25;20.40;99.30
55203;DHT22;41077;52.956;6.796;2022-07-23T11:54:31;20.20;99.90
55203;DHT22;41077;52.956;6.796;2022-07-23T11:56:58;20.20;99.90
55203;DHT22;41077;52.956;6.796;2022-07-23T11:59:25;20.50;99.40
55203;DHT22;41077;52.956;6.796;2022-07-23T12:01:59;20.90;99.80
55203;DHT22;41077;52.956;6.796;2022-07-23T12:04:37;21.00;97.50
55203;DHT22;41077;52.956;6.796;2022-07-23T12:07:03;20.90;97.10
55203;DHT22;41077;52.956;6.796;2022-07-23T12:09:29;20.60;97.70
55203;DHT22;41077;52.956;6.796;2022-07-23T12:11:59;20.80;98.90
55203;DHT22;41077;52.956;6.796;2022-07-23T12:14:25;20.80;98.80
55203;DHT22;41077;52.956;6.796;2022-07-23T12:17:07;20.70;98.60
55203;DHT22;41077;52.956;6.796;2022-07-23T12:19:33;20.70;98.40
55203;DHT22;41077;52.956;6.796;2022-07-23T12:21:59;20.70;99.60
55203;DHT22;41077;52.956;6.796;2022-07-23T12:24:25;20.60;99.90
55203;DHT22;41077;52.956;6.796;2022-07-23T12:27:12;20.80;98.90
55203;DHT22;41077;52.956;6.796;2022-07-23T12:29:39;20.80;98.10
55203;DHT22;41077;52.956;6.796;2022-07-23T12:32:22;20.80;99.30
55203;DHT22;41077;52.956;6.796;2022-07-23T12:34:49;20.70;99.90
55203;DHT22;41077;52.956;6.796;2022-07-23T12:37:30;20.60;99.30
55203;DHT22;41077;52.956;6.796;2022-07-23T12:39:56;20.50;99.60
55203;DHT22;41077;52.956;6.796;2022-07-23T12:42:22;20.70;99.80
55203;DHT22;41077;52.956;6.796;2022-07-23T12:45:10;20.90;99.80
55203;DHT22;41077;52.956;6.796;2022-07-23T12:50:44;20.90;99.90
55203;DHT22;41077;52.956;6.796;2022-07-23T12:53:16;20.90;99.90
55203;DHT22;41077;52.956;6.796;2022-07-23T12:55:43;20.90;99.90
55203;DHT22;41077;52.956;6.796;2022-07-23T12:58:14;20.80;99.90
55203;DHT22;41077;52.956;6.796;2022-07-23T13:03:28;20.90;99.90
55203;DHT22;41077;52.956;6.796;2022-07-23T13:05:54;21.50;99.90
55203;DHT22;41077;52.956;6.796;2022-07-23T13:08:21;22.10;99.90
55203;DHT22;41077;52.956;6.796;2022-07-23T13:10:47;22.70;97.80
55203;DHT22;41077;52.956;6.796;2022-07-23T13:13:15;23.00;98.00
55203;DHT22;41077;52.956;6.796;2022-07-23T13:15:42;23.60;98.40
55203;DHT22;41077;52.956;6.796;2022-07-23T13:18:09;24.20;96.50
55203;DHT22;41077;52.956;6.796;2022-07-23T13:20:35;24.20;95.10
55203;DHT22;41077;52.956;6.796;2022-07-23T13:23:01;23.70;93.70
55203;DHT22;41077;52.956;6.796;2022-07-23T13:25:27;23.30;92.70
55203;DHT22;41077;52.956;6.796;2022-07-23T13:27:53;22.80;94.70
55203;DHT22;41077;52.956;6.796;2022-07-23T13:30:19;22.40;95.40
55203;DHT22;41077;52.956;6.796;2022-07-23T13:32:44;22.10;95.60
55203;DHT22;41077;52.956;6.796;2022-07-23T13:35:10;21.90;96.20
55203;DHT22;41077;52.956;6.796;2022-07-23T13:37:37;21.70;96.30
55203;DHT22;41077;52.956;6.796;2022-07-23T13:40:03;21.50;96.60
55203;DHT22;41077;52.956;6.796;2022-07-23T13:42:29;21.30;97.80
55203;DHT22;41077;52.956;6.796;2022-07-23T13:44:55;21.30;98.50
55203;DHT22;41077;52.956;6.796;2022-07-23T13:47:20;21.30;98.10
55203;DHT22;41077;52.956;6.796;2022-07-23T13:49:46;21.30;99.10
55203;DHT22;41077;52.956;6.796;2022-07-23T13:52:11;21.20;98.90
55203;DHT22;41077;52.956;6.796;2022-07-23T13:54:37;21.20;99.80
55203;DHT22;41077;52.956;6.796;2022-07-23T13:57:03;21.30;99.90
55203;DHT22;41077;52.956;6.796;2022-07-23T13:59:29;21.30;99.90
55203;DHT22;41077;52.956;6.796;2022-07-23T14:01:55;21.20;99.90
55203;DHT22;41077;52.956;6.796;2022-07-23T14:04:21;21.20;99.80
55203;DHT22;41077;52.956;6.796;2022-07-23T14:06:46;21.10;99.60
55203;DHT22;41077;52.956;6.796;2022-07-23T14:09:12;21.10;99.80
55203;DHT22;41077;52.956;6.796;2022-07-23T14:11:38;21.20;99.90
55203;DHT22;41077;52.956;6.796;2022-07-23T14:14:04;21.20;99.80
55203;DHT22;41077;52.956;6.796;2022-07-23T14:16:30;21.20;99.10
55203;DHT22;41077;52.956;6.796;2022-07-23T14:18:55;21.30;97.70
55203;DHT22;41077;52.956;6.796;2022-07-23T14:21:21;21.30;98.90
55203;DHT22;41077;52.956;6.796;2022-07-23T14:23:47;21.30;99.70
55203;DHT22;41077;52.956;6.796;2022-07-23T14:26:13;21.30;99.90
55203;DHT22;41077;52.956;6.796;2022-07-23T14:28:38;21.50;99.30
55203;DHT22;41077;52.956;6.796;2022-07-23T14:31:04;21.50;99.00
55203;DHT22;41077;52.956;6.796;2022-07-23T14:33:30;21.50;98.50
55203;DHT22;41077;52.956;6.796;2022-07-23T14:35:56;21.60;98.50
55203;DHT22;41077;52.956;6.796;2022-07-23T14:38:21;21.60;98.00
55203;DHT22;41077;52.956;6.796;2022-07-23T14:40:47;21.80;98.00
55203;DHT22;41077;52.956;6.796;2022-07-23T14:43:13;21.60;98.30
55203;DHT22;41077;52.956;6.796;2022-07-23T14:45:39;21.70;97.50
55203;DHT22;41077;52.956;6.796;2022-07-23T14:48:05;21.70;98.10
55203;DHT22;41077;52.956;6.796;2022-07-23T14:50:30;21.60;97.20
55203;DHT22;41077;52.956;6.796;2022-07-23T14:52:56;21.70;97.00
55203;DHT22;41077;52.956;6.796;2022-07-23T14:55:22;21.70;97.30
55203;DHT22;41077;52.956;6.796;2022-07-23T14:57:47;21.70;98.10
55203;DHT22;41077;52.956;6.796;2022-07-23T15:00:13;21.70;98.80
55203;DHT22;41077;52.956;6.796;2022-07-23T15:02:39;21.90;98.70
55203;DHT22;41077;52.956;6.796;2022-07-23T15:05:05;21.90;97.90
55203;DHT22;41077;52.956;6.796;2022-07-23T15:07:31;22.00;97.00
55203;DHT22;41077;52.956;6.796;2022-07-23T15:09:57;22.00;97.10
55203;DHT22;41077;52.956;6.796;2022-07-23T15:12:23;22.00;97.30
55203;DHT22;41077;52.956;6.796;2022-07-23T15:14:49;22.00;98.60
55203;DHT22;41077;52.956;6.796;2022-07-23T15:17:15;22.10;98.20
55203;DHT22;41077;52.956;6.796;2022-07-23T15:19:41;22.10;96.70
55203;DHT22;41077;52.956;6.796;2022-07-23T15:22:07;22.10;96.40
55203;DHT22;41077;52.956;6.796;2022-07-23T15:24:33;21.90;97.70
55203;DHT22;41077;52.956;6.796;2022-07-23T15:26:59;22.00;97.00
55203;DHT22;41077;52.956;6.796;2022-07-23T15:29:25;22.00;97.00
55203;DHT22;41077;52.956;6.796;2022-07-23T15:31:50;21.90;97.70
55203;DHT22;41077;52.956;6.796;2022-07-23T15:34:16;22.10;96.00
55203;DHT22;41077;52.956;6.796;2022-07-23T15:36:42;22.00;96.30
55203;DHT22;41077;52.956;6.796;2022-07-23T15:39:07;22.00;96.30
55203;DHT22;41077;52.956;6.796;2022-07-23T15:41:33;22.00;96.40
55203;DHT22;41077;52.956;6.796;2022-07-23T15:43:59;21.90;96.40
55203;DHT22;41077;52.956;6.796;2022-07-23T15:46:24;21.70;96.60
55203;DHT22;41077;52.956;6.796;2022-07-23T15:48:51;21.70;96.90
55203;DHT22;41077;52.956;6.796;2022-07-23T15:51:17;21.80;97.50
55203;DHT22;41077;52.956;6.796;2022-07-23T15:53:43;21.90;96.80
55203;DHT22;41077;52.956;6.796;2022-07-23T15:56:09;21.90;97.00
55203;DHT22;41077;52.956;6.796;2022-07-23T15:58:35;21.90;97.40
55203;DHT22;41077;52.956;6.796;2022-07-23T16:01:01;21.80;97.70
55203;DHT22;41077;52.956;6.796;2022-07-23T16:03:29;21.90;97.60
55203;DHT22;41077;52.956;6.796;2022-07-23T16:05:55;22.00;97.40
55203;DHT22;41077;52.956;6.796;2022-07-23T16:08:21;21.90;96.90
55203;DHT22;41077;52.956;6.796;2022-07-23T16:10:47;21.90;97.70
55203;DHT22;41077;52.956;6.796;2022-07-23T16:13:13;21.90;98.30
55203;DHT22;41077;52.956;6.796;2022-07-23T16:15:39;21.80;98.40
55203;DHT22;41077;52.956;6.796;2022-07-23T16:18:07;21.90;98.50